Saint Catharines, Canada
Current Conditions -  °F | °C
As of 9:00 PM on Wednesday 26 Nov 2014 (Local Time) from CYSN Reporting Station
Overcast Overcast  
Wind Chill: 28°   Ceiling: 2800
Heat Index: 34°   Visibility: 15mi
Dew Point: 25°   Wind: 7mph
Humidity: 70%   Direction: 80°E
Pressure: 30.08"   Gusts: NA
Location:  43.16°N, 79.25°W
Report Text: CYSN 270200Z 08006KT 15SM OVC028 01/M04 A3008 RMK SC8 LAST STFD OBS/NEXT 27 1200 UTC SLP189
Loading
Personal Weather Stations






























Interactive Weather Map New forecast layout! Learn more

10-Day Weather Forecast

Advertisements
Track Severe Weather on mobile